sensor_id;sensor_type;location;lat;lon;timestamp;temperature;humidity
2363;DHT22;1192;51.664;7.626;2022-08-24T00:02:10;25.30;99.90
2363;DHT22;1192;51.664;7.626;2022-08-24T00:04:37;25.30;99.90
2363;DHT22;1192;51.664;7.626;2022-08-24T00:07:05;25.30;99.90
2363;DHT22;1192;51.664;7.626;2022-08-24T00:09:34;25.30;99.90
2363;DHT22;1192;51.664;7.626;2022-08-24T00:12:02;25.20;99.90
2363;DHT22;1192;51.664;7.626;2022-08-24T00:14:30;25.20;99.90
2363;DHT22;1192;51.664;7.626;2022-08-24T00:16:57;25.20;99.90
2363;DHT22;1192;51.664;7.626;2022-08-24T00:19:24;25.20;99.90
2363;DHT22;1192;51.664;7.626;2022-08-24T00:21:51;25.20;99.90
2363;DHT22;1192;51.664;7.626;2022-08-24T00:24:19;25.20;99.90
2363;DHT22;1192;51.664;7.626;2022-08-24T00:26:47;25.10;99.90
2363;DHT22;1192;51.664;7.626;2022-08-24T00:29:15;25.10;99.90
2363;DHT22;1192;51.664;7.626;2022-08-24T00:31:42;25.10;99.90
2363;DHT22;1192;51.664;7.626;2022-08-24T00:34:09;25.10;99.90
2363;DHT22;1192;51.664;7.626;2022-08-24T00:36:38;25.10;99.90
2363;DHT22;1192;51.664;7.626;2022-08-24T00:39:06;25.10;99.90
2363;DHT22;1192;51.664;7.626;2022-08-24T00:41:34;25.00;99.90
2363;DHT22;1192;51.664;7.626;2022-08-24T00:44:05;25.00;99.90
2363;DHT22;1192;51.664;7.626;2022-08-24T00:46:40;25.00;99.90
2363;DHT22;1192;51.664;7.626;2022-08-24T00:49:13;25.00;99.90
2363;DHT22;1192;51.664;7.626;2022-08-24T00:51:51;25.00;99.90
2363;DHT22;1192;51.664;7.626;2022-08-24T00:54:22;25.00;99.90
2363;DHT22;1192;51.664;7.626;2022-08-24T00:56:54;25.00;99.90
2363;DHT22;1192;51.664;7.626;2022-08-24T00:59:26;24.90;99.90
2363;DHT22;1192;51.664;7.626;2022-08-24T01:01:55;24.90;99.90
2363;DHT22;1192;51.664;7.626;2022-08-24T01:04:27;24.90;99.90
2363;DHT22;1192;51.664;7.626;2022-08-24T01:06:56;24.90;99.90
2363;DHT22;1192;51.664;7.626;2022-08-24T01:09:23;24.80;99.90
2363;DHT22;1192;51.664;7.626;2022-08-24T01:11:50;24.80;99.90
2363;DHT22;1192;51.664;7.626;2022-08-24T01:14:19;24.80;99.90
2363;DHT22;1192;51.664;7.626;2022-08-24T01:16:47;24.80;99.90
2363;DHT22;1192;51.664;7.626;2022-08-24T01:19:35;24.80;99.90
2363;DHT22;1192;51.664;7.626;2022-08-24T01:22:14;24.80;99.90
2363;DHT22;1192;51.664;7.626;2022-08-24T01:24:44;24.80;99.90
2363;DHT22;1192;51.664;7.626;2022-08-24T01:27:11;24.70;99.90
2363;DHT22;1192;51.664;7.626;2022-08-24T01:29:40;24.70;99.90
2363;DHT22;1192;51.664;7.626;2022-08-24T01:32:07;24.70;99.90
2363;DHT22;1192;51.664;7.626;2022-08-24T01:34:34;24.70;99.90
2363;DHT22;1192;51.664;7.626;2022-08-24T01:37:02;24.70;99.90
2363;DHT22;1192;51.664;7.626;2022-08-24T01:39:31;24.60;99.90
2363;DHT22;1192;51.664;7.626;2022-08-24T01:42:01;24.70;99.90
2363;DHT22;1192;51.664;7.626;2022-08-24T01:44:29;24.60;99.90
2363;DHT22;1192;51.664;7.626;2022-08-24T01:46:58;24.60;99.90
2363;DHT22;1192;51.664;7.626;2022-08-24T01:49:27;24.60;99.90
2363;DHT22;1192;51.664;7.626;2022-08-24T01:51:54;24.60;99.90
2363;DHT22;1192;51.664;7.626;2022-08-24T01:54:21;24.60;99.90
2363;DHT22;1192;51.664;7.626;2022-08-24T01:56:48;24.60;99.90
2363;DHT22;1192;51.664;7.626;2022-08-24T01:59:19;24.60;99.90
2363;DHT22;1192;51.664;7.626;2022-08-24T02:01:50;24.50;99.90
2363;DHT22;1192;51.664;7.626;2022-08-24T02:04:19;24.50;99.90
2363;DHT22;1192;51.664;7.626;2022-08-24T02:06:46;24.50;99.90
2363;DHT22;1192;51.664;7.626;2022-08-24T02:09:12;24.50;99.90
2363;DHT22;1192;51.664;7.626;2022-08-24T02:11:40;24.50;99.90
2363;DHT22;1192;51.664;7.626;2022-08-24T02:14:07;24.50;99.90
2363;DHT22;1192;51.664;7.626;2022-08-24T02:16:35;24.40;99.90
2363;DHT22;1192;51.664;7.626;2022-08-24T02:19:02;24.40;99.90
2363;DHT22;1192;51.664;7.626;2022-08-24T02:21:29;24.40;99.90
2363;DHT22;1192;51.664;7.626;2022-08-24T02:23:56;24.40;99.90
2363;DHT22;1192;51.664;7.626;2022-08-24T02:26:23;24.40;99.90
2363;DHT22;1192;51.664;7.626;2022-08-24T02:28:50;24.40;99.90
2363;DHT22;1192;51.664;7.626;2022-08-24T02:31:17;24.30;99.90
2363;DHT22;1192;51.664;7.626;2022-08-24T02:33:45;24.30;99.90
2363;DHT22;1192;51.664;7.626;2022-08-24T02:36:13;24.30;99.90
2363;DHT22;1192;51.664;7.626;2022-08-24T02:38:40;24.30;99.90
2363;DHT22;1192;51.664;7.626;2022-08-24T02:41:09;24.30;99.90
2363;DHT22;1192;51.664;7.626;2022-08-24T02:43:36;24.30;99.90
2363;DHT22;1192;51.664;7.626;2022-08-24T02:46:03;24.30;99.90
2363;DHT22;1192;51.664;7.626;2022-08-24T02:48:31;24.20;99.90
2363;DHT22;1192;51.664;7.626;2022-08-24T02:50:59;24.20;99.90
2363;DHT22;1192;51.664;7.626;2022-08-24T02:53:25;24.20;99.90
2363;DHT22;1192;51.664;7.626;2022-08-24T02:55:52;24.20;99.90
2363;DHT22;1192;51.664;7.626;2022-08-24T02:58:19;24.20;99.90
2363;DHT22;1192;51.664;7.626;2022-08-24T03:00:47;24.20;99.90
2363;DHT22;1192;51.664;7.626;2022-08-24T03:03:14;24.20;99.90
2363;DHT22;1192;51.664;7.626;2022-08-24T03:05:40;24.10;99.90
2363;DHT22;1192;51.664;7.626;2022-08-24T03:08:09;24.10;99.90
2363;DHT22;1192;51.664;7.626;2022-08-24T03:10:36;24.10;99.90
2363;DHT22;1192;51.664;7.626;2022-08-24T03:13:03;24.10;99.90
2363;DHT22;1192;51.664;7.626;2022-08-24T03:15:30;24.10;99.90
2363;DHT22;1192;51.664;7.626;2022-08-24T03:17:56;24.00;99.90
2363;DHT22;1192;51.664;7.626;2022-08-24T03:20:24;24.10;99.90
2363;DHT22;1192;51.664;7.626;2022-08-24T03:22:51;24.00;99.90
2363;DHT22;1192;51.664;7.626;2022-08-24T03:25:21;24.00;99.90
2363;DHT22;1192;51.664;7.626;2022-08-24T03:27:49;24.00;99.90
2363;DHT22;1192;51.664;7.626;2022-08-24T03:30:17;24.00;99.90
2363;DHT22;1192;51.664;7.626;2022-08-24T03:32:44;23.90;99.90
2363;DHT22;1192;51.664;7.626;2022-08-24T03:35:12;23.90;99.90
2363;DHT22;1192;51.664;7.626;2022-08-24T03:37:39;23.90;99.90
2363;DHT22;1192;51.664;7.626;2022-08-24T03:40:08;23.90;99.90
2363;DHT22;1192;51.664;7.626;2022-08-24T03:42:36;23.90;99.90
2363;DHT22;1192;51.664;7.626;2022-08-24T03:45:04;23.90;99.90
2363;DHT22;1192;51.664;7.626;2022-08-24T03:47:31;23.90;99.90
2363;DHT22;1192;51.664;7.626;2022-08-24T03:49:58;23.90;99.90
2363;DHT22;1192;51.664;7.626;2022-08-24T03:52:25;23.80;99.90
2363;DHT22;1192;51.664;7.626;2022-08-24T03:54:51;23.80;99.90
2363;DHT22;1192;51.664;7.626;2022-08-24T03:57:18;23.80;99.90
2363;DHT22;1192;51.664;7.626;2022-08-24T03:59:46;23.80;99.90
2363;DHT22;1192;51.664;7.626;2022-08-24T04:02:14;23.80;99.90
2363;DHT22;1192;51.664;7.626;2022-08-24T04:04:40;23.80;99.90
2363;DHT22;1192;51.664;7.626;2022-08-24T04:07:07;23.80;99.90
2363;DHT22;1192;51.664;7.626;2022-08-24T04:09:34;23.80;99.90
2363;DHT22;1192;51.664;7.626;2022-08-24T04:12:00;23.70;99.90
2363;DHT22;1192;51.664;7.626;2022-08-24T04:14:27;23.70;99.90
2363;DHT22;1192;51.664;7.626;2022-08-24T04:16:55;23.70;99.90
2363;DHT22;1192;51.664;7.626;2022-08-24T04:19:22;23.70;99.90
2363;DHT22;1192;51.664;7.626;2022-08-24T04:21:49;23.60;99.90
2363;DHT22;1192;51.664;7.626;2022-08-24T04:24:16;23.70;99.90
2363;DHT22;1192;51.664;7.626;2022-08-24T04:26:43;23.60;99.90
2363;DHT22;1192;51.664;7.626;2022-08-24T04:29:11;23.60;99.90
2363;DHT22;1192;51.664;7.626;2022-08-24T04:31:40;23.60;99.90
2363;DHT22;1192;51.664;7.626;2022-08-24T04:34:09;23.60;99.90
2363;DHT22;1192;51.664;7.626;2022-08-24T04:36:38;23.50;99.90
2363;DHT22;1192;51.664;7.626;2022-08-24T04:39:06;23.50;99.90
2363;DHT22;1192;51.664;7.626;2022-08-24T04:41:33;23.50;99.90
2363;DHT22;1192;51.664;7.626;2022-08-24T04:44:00;23.50;99.90
2363;DHT22;1192;51.664;7.626;2022-08-24T04:46:27;23.50;99.90
2363;DHT22;1192;51.664;7.626;2022-08-24T04:48:54;23.50;99.90
2363;DHT22;1192;51.664;7.626;2022-08-24T04:51:22;23.50;99.90
2363;DHT22;1192;51.664;7.626;2022-08-24T04:53:49;23.50;99.90
2363;DHT22;1192;51.664;7.626;2022-08-24T04:56:18;23.50;99.90
2363;DHT22;1192;51.664;7.626;2022-08-24T04:58:45;23.40;99.90
2363;DHT22;1192;51.664;7.626;2022-08-24T05:01:14;23.40;99.90
2363;DHT22;1192;51.664;7.626;2022-08-24T05:03:43;23.40;99.90
2363;DHT22;1192;51.664;7.626;2022-08-24T05:06:10;23.40;99.90
2363;DHT22;1192;51.664;7.626;2022-08-24T05:08:39;23.40;99.90
2363;DHT22;1192;51.664;7.626;2022-08-24T05:11:06;23.40;99.90
2363;DHT22;1192;51.664;7.626;2022-08-24T05:13:33;23.40;99.90
2363;DHT22;1192;51.664;7.626;2022-08-24T05:16:00;23.40;99.90
2363;DHT22;1192;51.664;7.626;2022-08-24T05:18:26;23.40;99.90
2363;DHT22;1192;51.664;7.626;2022-08-24T05:20:54;23.40;99.90
2363;DHT22;1192;51.664;7.626;2022-08-24T05:23:21;23.40;99.90
2363;DHT22;1192;51.664;7.626;2022-08-24T05:25:50;23.40;99.90
2363;DHT22;1192;51.664;7.626;2022-08-24T05:28:17;23.30;99.90
2363;DHT22;1192;51.664;7.626;2022-08-24T05:30:43;23.30;99.90
2363;DHT22;1192;51.664;7.626;2022-08-24T05:33:10;23.30;99.90
2363;DHT22;1192;51.664;7.626;2022-08-24T05:35:38;23.30;99.90
2363;DHT22;1192;51.664;7.626;2022-08-24T05:38:05;23.30;99.90
2363;DHT22;1192;51.664;7.626;2022-08-24T05:40:35;23.30;99.90
2363;DHT22;1192;51.664;7.626;2022-08-24T05:43:04;23.30;99.90
2363;DHT22;1192;51.664;7.626;2022-08-24T05:45:30;23.30;99.90
2363;DHT22;1192;51.664;7.626;2022-08-24T05:47:57;23.30;99.90
2363;DHT22;1192;51.664;7.626;2022-08-24T05:50:24;23.40;99.90
2363;DHT22;1192;51.664;7.626;2022-08-24T05:52:51;23.40;99.90
2363;DHT22;1192;51.664;7.626;2022-08-24T05:55:18;23.40;99.90
2363;DHT22;1192;51.664;7.626;2022-08-24T05:57:45;23.50;99.90
2363;DHT22;1192;51.664;7.626;2022-08-24T06:00:14;23.70;99.90
2363;DHT22;1192;51.664;7.626;2022-08-24T06:02:40;24.00;99.90
2363;DHT22;1192;51.664;7.626;2022-08-24T06:05:09;24.20;99.90
2363;DHT22;1192;51.664;7.626;2022-08-24T06:07:35;24.50;99.90
2363;DHT22;1192;51.664;7.626;2022-08-24T06:10:02;24.70;99.90
2363;DHT22;1192;51.664;7.626;2022-08-24T06:12:29;24.90;99.90
2363;DHT22;1192;51.664;7.626;2022-08-24T06:14:56;25.10;99.90
2363;DHT22;1192;51.664;7.626;2022-08-24T06:17:24;25.30;99.90
2363;DHT22;1192;51.664;7.626;2022-08-24T06:19:51;25.50;99.90
2363;DHT22;1192;51.664;7.626;2022-08-24T06:22:17;25.70;99.90
2363;DHT22;1192;51.664;7.626;2022-08-24T06:24:44;25.80;99.90
2363;DHT22;1192;51.664;7.626;2022-08-24T06:27:28;26.00;99.90
2363;DHT22;1192;51.664;7.626;2022-08-24T06:29:57;26.10;99.90
2363;DHT22;1192;51.664;7.626;2022-08-24T06:32:26;26.30;99.90
2363;DHT22;1192;51.664;7.626;2022-08-24T06:34:55;26.40;99.60
2363;DHT22;1192;51.664;7.626;2022-08-24T06:37:22;26.40;99.20
2363;DHT22;1192;51.664;7.626;2022-08-24T06:39:52;26.50;99.00
2363;DHT22;1192;51.664;7.626;2022-08-24T06:42:19;26.60;98.70
2363;DHT22;1192;51.664;7.626;2022-08-24T06:44:46;26.60;98.50
2363;DHT22;1192;51.664;7.626;2022-08-24T06:47:13;26.50;98.40
2363;DHT22;1192;51.664;7.626;2022-08-24T06:49:41;26.40;98.50
2363;DHT22;1192;51.664;7.626;2022-08-24T06:52:08;26.30;98.70
2363;DHT22;1192;51.664;7.626;2022-08-24T06:54:36;26.10;99.00
2363;DHT22;1192;51.664;7.626;2022-08-24T06:57:03;26.00;99.30
2363;DHT22;1192;51.664;7.626;2022-08-24T06:59:30;25.90;99.60
2363;DHT22;1192;51.664;7.626;2022-08-24T07:01:58;25.80;99.90
2363;DHT22;1192;51.664;7.626;2022-08-24T07:04:26;25.70;99.90
2363;DHT22;1192;51.664;7.626;2022-08-24T07:06:55;25.70;99.90
2363;DHT22;1192;51.664;7.626;2022-08-24T07:09:21;25.70;99.90
2363;DHT22;1192;51.664;7.626;2022-08-24T07:11:49;25.70;99.90
2363;DHT22;1192;51.664;7.626;2022-08-24T07:14:16;25.80;99.90
2363;DHT22;1192;51.664;7.626;2022-08-24T07:16:43;25.80;99.90
2363;DHT22;1192;51.664;7.626;2022-08-24T07:19:09;25.80;99.90
2363;DHT22;1192;51.664;7.626;2022-08-24T07:21:36;25.90;99.90
2363;DHT22;1192;51.664;7.626;2022-08-24T07:24:05;26.00;99.70
2363;DHT22;1192;51.664;7.626;2022-08-24T07:26:32;26.10;99.40
2363;DHT22;1192;51.664;7.626;2022-08-24T07:29:00;26.20;99.10
2363;DHT22;1192;51.664;7.626;2022-08-24T07:31:31;26.30;98.80
2363;DHT22;1192;51.664;7.626;2022-08-24T07:33:57;26.40;98.70
2363;DHT22;1192;51.664;7.626;2022-08-24T07:36:24;26.40;98.50
2363;DHT22;1192;51.664;7.626;2022-08-24T07:38:52;26.40;98.40
2363;DHT22;1192;51.664;7.626;2022-08-24T07:41:21;26.60;98.10
2363;DHT22;1192;51.664;7.626;2022-08-24T07:43:50;26.70;97.70
2363;DHT22;1192;51.664;7.626;2022-08-24T07:46:16;26.80;97.40
2363;DHT22;1192;51.664;7.626;2022-08-24T07:48:43;26.90;97.00
2363;DHT22;1192;51.664;7.626;2022-08-24T07:51:12;26.90;96.80
2363;DHT22;1192;51.664;7.626;2022-08-24T07:53:40;26.90;96.80
2363;DHT22;1192;51.664;7.626;2022-08-24T07:56:07;26.80;97.00
2363;DHT22;1192;51.664;7.626;2022-08-24T07:58:36;26.60;97.10
2363;DHT22;1192;51.664;7.626;2022-08-24T08:01:03;26.60;97.40
2363;DHT22;1192;51.664;7.626;2022-08-24T08:03:30;26.50;97.50
2363;DHT22;1192;51.664;7.626;2022-08-24T08:06:01;26.50;97.60
2363;DHT22;1192;51.664;7.626;2022-08-24T08:08:28;26.50;97.60
2363;DHT22;1192;51.664;7.626;2022-08-24T08:10:56;26.50;97.60
2363;DHT22;1192;51.664;7.626;2022-08-24T08:13:23;26.40;97.60
2363;DHT22;1192;51.664;7.626;2022-08-24T08:15:51;26.40;97.50
2363;DHT22;1192;51.664;7.626;2022-08-24T08:18:18;26.50;97.60
2363;DHT22;1192;51.664;7.626;2022-08-24T08:20:45;26.50;97.50
2363;DHT22;1192;51.664;7.626;2022-08-24T08:23:13;26.60;97.30
2363;DHT22;1192;51.664;7.626;2022-08-24T08:25:57;26.70;97.00
2363;DHT22;1192;51.664;7.626;2022-08-24T08:28:27;26.90;96.80
2363;DHT22;1192;51.664;7.626;2022-08-24T08:30:59;27.00;96.30
2363;DHT22;1192;51.664;7.626;2022-08-24T08:33:26;27.20;96.00
2363;DHT22;1192;51.664;7.626;2022-08-24T08:35:59;27.30;95.70
2363;DHT22;1192;51.664;7.626;2022-08-24T08:38:28;27.40;95.20
2363;DHT22;1192;51.664;7.626;2022-08-24T08:43:45;27.70;94.60
2363;DHT22;1192;51.664;7.626;2022-08-24T08:46:27;27.80;94.30
2363;DHT22;1192;51.664;7.626;2022-08-24T08:49:14;27.80;94.00
2363;DHT22;1192;51.664;7.626;2022-08-24T08:52:03;27.90;93.90
2363;DHT22;1192;51.664;7.626;2022-08-24T08:54:44;27.90;93.60
2363;DHT22;1192;51.664;7.626;2022-08-24T08:57:25;27.90;93.50
2363;DHT22;1192;51.664;7.626;2022-08-24T09:00:06;28.00;93.30
2363;DHT22;1192;51.664;7.626;2022-08-24T09:03:07;28.00;92.90
2363;DHT22;1192;51.664;7.626;2022-08-24T09:06:01;28.00;92.90
2363;DHT22;1192;51.664;7.626;2022-08-24T09:08:47;28.00;92.70
2363;DHT22;1192;51.664;7.626;2022-08-24T09:11:27;28.10;92.90
2363;DHT22;1192;51.664;7.626;2022-08-24T09:14:09;28.10;92.60
2363;DHT22;1192;51.664;7.626;2022-08-24T09:16:59;28.10;92.50
2363;DHT22;1192;51.664;7.626;2022-08-24T09:19:38;28.00;92.40
2363;DHT22;1192;51.664;7.626;2022-08-24T09:22:13;28.10;92.30
2363;DHT22;1192;51.664;7.626;2022-08-24T09:24:53;28.10;92.30
2363;DHT22;1192;51.664;7.626;2022-08-24T09:27:38;28.10;92.30
2363;DHT22;1192;51.664;7.626;2022-08-24T09:30:09;28.00;92.20
2363;DHT22;1192;51.664;7.626;2022-08-24T09:32:50;28.00;92.20
2363;DHT22;1192;51.664;7.626;2022-08-24T09:35:32;28.00;92.20
2363;DHT22;1192;51.664;7.626;2022-08-24T09:38:06;28.00;91.90
2363;DHT22;1192;51.664;7.626;2022-08-24T09:40:56;28.00;91.80
2363;DHT22;1192;51.664;7.626;2022-08-24T09:43:52;28.00;91.80
2363;DHT22;1192;51.664;7.626;2022-08-24T09:49:59;28.00;92.10
2363;DHT22;1192;51.664;7.626;2022-08-24T09:55:53;28.00;91.90
2363;DHT22;1192;51.664;7.626;2022-08-24T09:58:32;28.00;92.00
2363;DHT22;1192;51.664;7.626;2022-08-24T10:01:07;27.90;91.70
2363;DHT22;1192;51.664;7.626;2022-08-24T10:03:49;28.00;91.70
2363;DHT22;1192;51.664;7.626;2022-08-24T10:06:27;27.90;91.30
2363;DHT22;1192;51.664;7.626;2022-08-24T10:09:07;27.90;91.70
2363;DHT22;1192;51.664;7.626;2022-08-24T10:11:43;27.90;91.70
2363;DHT22;1192;51.664;7.626;2022-08-24T10:14:17;27.90;91.50
2363;DHT22;1192;51.664;7.626;2022-08-24T10:16:51;27.90;91.80
2363;DHT22;1192;51.664;7.626;2022-08-24T10:19:36;27.90;91.40
2363;DHT22;1192;51.664;7.626;2022-08-24T10:22:10;27.90;91.50
2363;DHT22;1192;51.664;7.626;2022-08-24T10:24:55;27.90;91.50
2363;DHT22;1192;51.664;7.626;2022-08-24T10:27:38;27.90;91.60
2363;DHT22;1192;51.664;7.626;2022-08-24T10:30:36;27.90;91.70
2363;DHT22;1192;51.664;7.626;2022-08-24T10:33:17;27.80;91.70
2363;DHT22;1192;51.664;7.626;2022-08-24T10:35:58;27.80;91.70
2363;DHT22;1192;51.664;7.626;2022-08-24T10:38:33;27.80;91.60
2363;DHT22;1192;51.664;7.626;2022-08-24T10:44:45;27.80;91.20
2363;DHT22;1192;51.664;7.626;2022-08-24T10:47:19;27.80;91.20
2363;DHT22;1192;51.664;7.626;2022-08-24T10:53:05;27.80;91.20
2363;DHT22;1192;51.664;7.626;2022-08-24T10:55:34;27.80;91.00
2363;DHT22;1192;51.664;7.626;2022-08-24T10:58:25;27.70;91.20
2363;DHT22;1192;51.664;7.626;2022-08-24T11:00:55;27.70;90.80
2363;DHT22;1192;51.664;7.626;2022-08-24T11:03:29;27.80;90.90
2363;DHT22;1192;51.664;7.626;2022-08-24T11:05:56;27.70;91.30
2363;DHT22;1192;51.664;7.626;2022-08-24T11:08:25;27.70;91.20
2363;DHT22;1192;51.664;7.626;2022-08-24T11:11:05;27.70;91.10
2363;DHT22;1192;51.664;7.626;2022-08-24T11:13:49;27.70;90.80
2363;DHT22;1192;51.664;7.626;2022-08-24T11:16:23;27.70;91.10
2363;DHT22;1192;51.664;7.626;2022-08-24T11:18:52;27.80;91.10
2363;DHT22;1192;51.664;7.626;2022-08-24T11:21:39;27.70;91.10
2363;DHT22;1192;51.664;7.626;2022-08-24T11:24:10;27.70;91.10
2363;DHT22;1192;51.664;7.626;2022-08-24T11:26:53;27.70;90.90
2363;DHT22;1192;51.664;7.626;2022-08-24T11:29:27;27.70;90.80
2363;DHT22;1192;51.664;7.626;2022-08-24T11:31:55;27.70;90.40
2363;DHT22;1192;51.664;7.626;2022-08-24T11:34:32;27.80;90.80
2363;DHT22;1192;51.664;7.626;2022-08-24T11:36:59;27.70;90.40
2363;DHT22;1192;51.664;7.626;2022-08-24T11:39:29;27.80;90.80
2363;DHT22;1192;51.664;7.626;2022-08-24T11:42:01;27.70;90.70
2363;DHT22;1192;51.664;7.626;2022-08-24T11:44:47;27.80;90.80
2363;DHT22;1192;51.664;7.626;2022-08-24T11:47:37;27.80;90.70
2363;DHT22;1192;51.664;7.626;2022-08-24T11:50:20;27.80;90.60
2363;DHT22;1192;51.664;7.626;2022-08-24T11:53:06;27.80;90.50
2363;DHT22;1192;51.664;7.626;2022-08-24T11:55:38;27.70;90.10
2363;DHT22;1192;51.664;7.626;2022-08-24T11:58:11;27.70;90.20
2363;DHT22;1192;51.664;7.626;2022-08-24T12:00:45;27.70;90.30
2363;DHT22;1192;51.664;7.626;2022-08-24T12:03:25;27.70;90.20
2363;DHT22;1192;51.664;7.626;2022-08-24T12:06:02;27.80;90.30
2363;DHT22;1192;51.664;7.626;2022-08-24T12:08:35;27.70;90.30
2363;DHT22;1192;51.664;7.626;2022-08-24T12:11:11;27.70;90.30
2363;DHT22;1192;51.664;7.626;2022-08-24T12:13:46;27.70;90.20
2363;DHT22;1192;51.664;7.626;2022-08-24T12:16:20;27.70;90.00
2363;DHT22;1192;51.664;7.626;2022-08-24T12:18:54;27.70;90.30
2363;DHT22;1192;51.664;7.626;2022-08-24T12:21:28;27.70;90.30
2363;DHT22;1192;51.664;7.626;2022-08-24T12:23:59;27.70;90.30
2363;DHT22;1192;51.664;7.626;2022-08-24T12:26:32;27.70;89.50
2363;DHT22;1192;51.664;7.626;2022-08-24T12:29:05;27.70;89.60
2363;DHT22;1192;51.664;7.626;2022-08-24T12:31:38;27.70;89.20
2363;DHT22;1192;51.664;7.626;2022-08-24T12:34:10;27.70;89.30
2363;DHT22;1192;51.664;7.626;2022-08-24T12:36:41;27.70;89.50
2363;DHT22;1192;51.664;7.626;2022-08-24T12:39:16;27.70;90.00
2363;DHT22;1192;51.664;7.626;2022-08-24T12:41:53;27.70;89.60
2363;DHT22;1192;51.664;7.626;2022-08-24T12:44:26;27.70;89.90
2363;DHT22;1192;51.664;7.626;2022-08-24T12:46:56;27.70;90.00
2363;DHT22;1192;51.664;7.626;2022-08-24T12:49:26;27.70;89.00
2363;DHT22;1192;51.664;7.626;2022-08-24T12:52:10;27.70;89.00
2363;DHT22;1192;51.664;7.626;2022-08-24T12:57:45;27.70;89.30
2363;DHT22;1192;51.664;7.626;2022-08-24T13:00:19;27.70;89.30
2363;DHT22;1192;51.664;7.626;2022-08-24T13:02:55;27.70;89.00
2363;DHT22;1192;51.664;7.626;2022-08-24T13:05:22;27.70;88.90
2363;DHT22;1192;51.664;7.626;2022-08-24T13:07:51;27.70;89.00
2363;DHT22;1192;51.664;7.626;2022-08-24T13:10:37;27.70;88.70
2363;DHT22;1192;51.664;7.626;2022-08-24T13:13:12;27.70;88.90
2363;DHT22;1192;51.664;7.626;2022-08-24T13:15:52;27.70;89.10
2363;DHT22;1192;51.664;7.626;2022-08-24T13:21:43;27.70;88.70
2363;DHT22;1192;51.664;7.626;2022-08-24T13:31:04;27.80;88.50
2363;DHT22;1192;51.664;7.626;2022-08-24T13:33:41;27.80;88.10
2363;DHT22;1192;51.664;7.626;2022-08-24T13:36:37;27.80;88.10
2363;DHT22;1192;51.664;7.626;2022-08-24T13:39:14;27.80;87.90
2363;DHT22;1192;51.664;7.626;2022-08-24T13:41:47;27.80;87.90
2363;DHT22;1192;51.664;7.626;2022-08-24T13:44:22;27.80;87.90
2363;DHT22;1192;51.664;7.626;2022-08-24T13:46:59;27.80;88.10
2363;DHT22;1192;51.664;7.626;2022-08-24T13:49:39;27.80;87.80
2363;DHT22;1192;51.664;7.626;2022-08-24T13:52:18;27.80;87.50
2363;DHT22;1192;51.664;7.626;2022-08-24T13:54:59;27.80;87.40
2363;DHT22;1192;51.664;7.626;2022-08-24T13:57:36;27.80;87.60
2363;DHT22;1192;51.664;7.626;2022-08-24T14:00:29;27.80;87.60
2363;DHT22;1192;51.664;7.626;2022-08-24T14:03:13;27.80;87.40
2363;DHT22;1192;51.664;7.626;2022-08-24T14:05:49;27.80;86.90
2363;DHT22;1192;51.664;7.626;2022-08-24T14:08:36;27.90;86.70
2363;DHT22;1192;51.664;7.626;2022-08-24T14:11:09;27.90;86.10
2363;DHT22;1192;51.664;7.626;2022-08-24T14:13:59;27.90;86.30
2363;DHT22;1192;51.664;7.626;2022-08-24T14:16:37;27.90;86.40
2363;DHT22;1192;51.664;7.626;2022-08-24T14:19:27;27.90;86.60
2363;DHT22;1192;51.664;7.626;2022-08-24T14:22:02;27.90;86.80
2363;DHT22;1192;51.664;7.626;2022-08-24T14:24:36;27.90;86.80
2363;DHT22;1192;51.664;7.626;2022-08-24T14:27:10;27.90;86.60
2363;DHT22;1192;51.664;7.626;2022-08-24T14:29:40;27.90;86.60
2363;DHT22;1192;51.664;7.626;2022-08-24T14:32:43;27.90;86.50
2363;DHT22;1192;51.664;7.626;2022-08-24T14:35:31;27.90;86.50
2363;DHT22;1192;51.664;7.626;2022-08-24T14:38:08;27.90;86.50
2363;DHT22;1192;51.664;7.626;2022-08-24T14:40:50;27.90;86.30
2363;DHT22;1192;51.664;7.626;2022-08-24T14:43:22;27.90;86.30
2363;DHT22;1192;51.664;7.626;2022-08-24T14:45:54;27.90;85.90
2363;DHT22;1192;51.664;7.626;2022-08-24T14:48:29;27.90;85.50
2363;DHT22;1192;51.664;7.626;2022-08-24T14:51:04;27.90;85.80
2363;DHT22;1192;51.664;7.626;2022-08-24T14:53:49;27.90;85.90
2363;DHT22;1192;51.664;7.626;2022-08-24T14:56:25;27.90;85.90
2363;DHT22;1192;51.664;7.626;2022-08-24T14:58:59;28.00;85.70
2363;DHT22;1192;51.664;7.626;2022-08-24T15:01:40;28.00;85.80
2363;DHT22;1192;51.664;7.626;2022-08-24T15:07:26;28.00;85.80
2363;DHT22;1192;51.664;7.626;2022-08-24T15:09:56;28.00;85.80
2363;DHT22;1192;51.664;7.626;2022-08-24T15:12:32;28.00;85.70
2363;DHT22;1192;51.664;7.626;2022-08-24T15:15:06;28.00;85.60
2363;DHT22;1192;51.664;7.626;2022-08-24T15:17:43;28.00;85.50
2363;DHT22;1192;51.664;7.626;2022-08-24T15:20:18;28.00;85.60
2363;DHT22;1192;51.664;7.626;2022-08-24T15:22:49;28.00;85.60
2363;DHT22;1192;51.664;7.626;2022-08-24T15:25:30;28.00;85.20
2363;DHT22;1192;51.664;7.626;2022-08-24T15:28:06;28.00;85.20
2363;DHT22;1192;51.664;7.626;2022-08-24T15:30:36;28.10;85.20
2363;DHT22;1192;51.664;7.626;2022-08-24T15:33:09;28.00;85.10
2363;DHT22;1192;51.664;7.626;2022-08-24T15:35:39;28.00;84.90
2363;DHT22;1192;51.664;7.626;2022-08-24T15:38:18;28.00;85.00
2363;DHT22;1192;51.664;7.626;2022-08-24T15:40:49;28.10;85.20
2363;DHT22;1192;51.664;7.626;2022-08-24T15:43:17;28.10;84.80
2363;DHT22;1192;51.664;7.626;2022-08-24T15:45:46;28.10;84.90
2363;DHT22;1192;51.664;7.626;2022-08-24T15:48:17;28.10;84.80
2363;DHT22;1192;51.664;7.626;2022-08-24T15:50:47;28.10;84.80
2363;DHT22;1192;51.664;7.626;2022-08-24T15:53:35;28.10;84.80
2363;DHT22;1192;51.664;7.626;2022-08-24T15:56:25;28.10;84.70
2363;DHT22;1192;51.664;7.626;2022-08-24T15:59:11;28.10;84.10
2363;DHT22;1192;51.664;7.626;2022-08-24T16:01:38;28.10;83.80
2363;DHT22;1192;51.664;7.626;2022-08-24T16:04:42;28.10;83.90
2363;DHT22;1192;51.664;7.626;2022-08-24T16:07:20;28.10;84.10
2363;DHT22;1192;51.664;7.626;2022-08-24T16:09:47;28.10;84.20
2363;DHT22;1192;51.664;7.626;2022-08-24T16:12:21;28.10;83.70
2363;DHT22;1192;51.664;7.626;2022-08-24T16:14:51;28.10;83.60
2363;DHT22;1192;51.664;7.626;2022-08-24T16:17:26;28.10;83.60
2363;DHT22;1192;51.664;7.626;2022-08-24T16:19:57;28.10;83.40
2363;DHT22;1192;51.664;7.626;2022-08-24T16:22:29;28.10;83.40
2363;DHT22;1192;51.664;7.626;2022-08-24T16:25:15;28.10;83.50
2363;DHT22;1192;51.664;7.626;2022-08-24T16:28:04;28.10;83.50
2363;DHT22;1192;51.664;7.626;2022-08-24T16:30:42;28.10;83.60
2363;DHT22;1192;51.664;7.626;2022-08-24T16:33:33;28.10;83.00
2363;DHT22;1192;51.664;7.626;2022-08-24T16:35:59;28.10;83.10
2363;DHT22;1192;51.664;7.626;2022-08-24T16:38:26;28.10;83.20
2363;DHT22;1192;51.664;7.626;2022-08-24T16:40:56;28.10;83.10
2363;DHT22;1192;51.664;7.626;2022-08-24T16:43:25;28.10;83.20
2363;DHT22;1192;51.664;7.626;2022-08-24T16:45:52;28.10;83.10
2363;DHT22;1192;51.664;7.626;2022-08-24T16:48:19;28.10;83.20
2363;DHT22;1192;51.664;7.626;2022-08-24T16:50:46;28.20;83.10
2363;DHT22;1192;51.664;7.626;2022-08-24T16:53:13;28.10;82.70
2363;DHT22;1192;51.664;7.626;2022-08-24T16:55:40;28.10;82.60
2363;DHT22;1192;51.664;7.626;2022-08-24T16:58:07;28.10;82.60
2363;DHT22;1192;51.664;7.626;2022-08-24T17:00:35;28.10;82.50
2363;DHT22;1192;51.664;7.626;2022-08-24T17:03:02;28.10;82.10
2363;DHT22;1192;51.664;7.626;2022-08-24T17:05:29;28.10;82.40
2363;DHT22;1192;51.664;7.626;2022-08-24T17:07:57;28.10;82.40